createdAt,value
2023-05-18T00:00:36.477Z,7.75
2023-05-18T00:03:04.570Z,7.65
2023-05-18T00:05:34.415Z,7.54
2023-05-18T00:08:02.740Z,7.44
2023-05-18T00:10:31.068Z,7.40
2023-05-18T00:12:59.096Z,7.16
2023-05-18T00:15:27.418Z,7.18
2023-05-18T00:17:57.259Z,7.28
2023-05-18T00:20:26.722Z,7.30
2023-05-18T00:22:54.897Z,7.25
2023-05-18T00:25:22.911Z,7.29
2023-05-18T00:27:52.160Z,7.33
2023-05-18T00:30:20.325Z,7.20
2023-05-18T00:32:48.302Z,7.25
2023-05-18T00:35:17.665Z,7.12
2023-05-18T00:37:45.614Z,6.95
2023-05-18T00:40:14.259Z,7.06
2023-05-18T00:42:42.231Z,6.88
2023-05-18T00:45:11.347Z,6.97
2023-05-18T00:47:39.337Z,7.04
2023-05-18T00:50:08.563Z,7.00
2023-05-18T00:52:38.663Z,6.99
2023-05-18T00:55:08.323Z,7.02
2023-05-18T00:57:36.790Z,6.93
2023-05-18T01:00:07.468Z,7.10
2023-05-18T01:02:37.290Z,7.06
2023-05-18T01:05:06.112Z,6.96
2023-05-18T01:07:34.533Z,6.77
2023-05-18T01:10:03.922Z,6.84
2023-05-18T01:12:37.415Z,6.47
2023-05-18T01:15:11.557Z,6.81
2023-05-18T01:17:52.505Z,6.67
2023-05-18T01:20:33.716Z,6.48
2023-05-18T01:23:25.644Z,6.43
2023-05-18T01:26:12.181Z,6.36
2023-05-18T01:28:40.185Z,6.58
2023-05-18T01:31:08.229Z,6.40
2023-05-18T01:33:36.399Z,6.45
2023-05-18T01:36:04.579Z,6.50
2023-05-18T01:38:32.770Z,6.63
2023-05-18T01:41:07.482Z,6.62
2023-05-18T01:43:37.737Z,6.71
2023-05-18T01:46:14.933Z,6.66
2023-05-18T01:48:46.977Z,6.52
2023-05-18T01:51:16.715Z,6.65
2023-05-18T01:53:51.593Z,6.72
2023-05-18T01:56:22.413Z,6.30
2023-05-18T01:58:51.636Z,6.48
2023-05-18T02:01:20.403Z,6.30
2023-05-18T02:03:48.620Z,6.17
2023-05-18T02:06:16.808Z,6.01
2023-05-18T02:08:44.928Z,6.15
2023-05-18T02:11:12.894Z,5.98
2023-05-18T02:13:42.279Z,5.95
2023-05-18T02:16:10.840Z,6.13
2023-05-18T02:18:38.924Z,5.83
2023-05-18T02:21:09.504Z,5.92
2023-05-18T02:23:37.535Z,5.97
2023-05-18T02:26:05.669Z,6.15
2023-05-18T02:28:33.672Z,6.13
2023-05-18T02:31:11.863Z,6.04
2023-05-18T02:33:42.676Z,5.95
2023-05-18T02:36:12.424Z,5.89
2023-05-18T02:38:42.326Z,5.97
2023-05-18T02:41:10.710Z,6.09
2023-05-18T02:43:38.784Z,5.96
2023-05-18T02:46:06.986Z,5.91
2023-05-18T02:48:36.518Z,5.87
2023-05-18T02:51:04.662Z,6.03
2023-05-18T02:53:32.624Z,5.97
2023-05-18T02:56:03.520Z,5.91
2023-05-18T02:58:31.840Z,5.98
2023-05-18T03:01:01.056Z,5.79
2023-05-18T03:03:29.121Z,5.67
2023-05-18T03:05:58.559Z,5.68
2023-05-18T03:08:27.111Z,5.73
2023-05-18T03:10:55.227Z,5.65
2023-05-18T03:13:23.256Z,5.65
2023-05-18T03:15:52.009Z,5.55
2023-05-18T03:18:20.214Z,5.29
2023-05-18T03:20:50.075Z,5.18
2023-05-18T03:23:20.779Z,5.18
2023-05-18T03:25:55.370Z,5.22
2023-05-18T03:28:23.442Z,5.23
2023-05-18T03:30:51.918Z,5.24
2023-05-18T03:33:19.975Z,5.16
2023-05-18T03:35:48.684Z,5.40
2023-05-18T03:38:16.881Z,5.39
2023-05-18T03:40:46.275Z,5.44
2023-05-18T03:43:14.261Z,5.17
2023-05-18T03:45:42.251Z,5.28
2023-05-18T03:48:10.268Z,5.41
2023-05-18T03:50:38.426Z,5.54
2023-05-18T03:53:06.411Z,5.54
2023-05-18T03:55:34.397Z,5.56
2023-05-18T03:58:03.771Z,5.51
2023-05-18T04:00:32.437Z,5.56
2023-05-18T04:03:03.448Z,5.49
2023-05-18T04:05:31.785Z,5.34
2023-05-18T04:07:59.941Z,5.18
2023-05-18T04:10:27.978Z,5.19
2023-05-18T04:12:56.032Z,5.24
2023-05-18T04:15:25.821Z,5.27
2023-05-18T04:17:53.988Z,5.29
2023-05-18T04:20:22.018Z,5.30
2023-05-18T04:22:50.324Z,5.41
2023-05-18T04:25:18.811Z,5.45
2023-05-18T04:27:49.006Z,5.40
2023-05-18T04:30:19.081Z,5.67
2023-05-18T04:32:48.528Z,5.39
2023-05-18T04:35:16.875Z,5.29
2023-05-18T04:37:44.888Z,5.37
2023-05-18T04:40:14.294Z,5.51
2023-05-18T04:42:45.598Z,5.75
2023-05-18T04:45:15.949Z,5.78
2023-05-18T04:47:46.955Z,5.78
2023-05-18T04:50:17.989Z,5.81
2023-05-18T04:52:48.992Z,5.91
2023-05-18T04:55:23.140Z,5.84
2023-05-18T04:57:54.028Z,5.89
2023-05-18T05:00:22.489Z,5.89
2023-05-18T05:02:50.525Z,5.93
2023-05-18T05:05:19.966Z,6.03
2023-05-18T05:07:47.934Z,5.96
2023-05-18T05:10:15.942Z,6.08
2023-05-18T05:12:43.964Z,6.01
2023-05-18T05:15:12.115Z,6.24
2023-05-18T05:17:40.176Z,6.24
2023-05-18T05:20:09.211Z,6.31
2023-05-18T05:22:38.661Z,6.43
2023-05-18T05:25:07.649Z,6.53
2023-05-18T05:27:35.699Z,6.40
2023-05-18T05:30:04.511Z,6.76
2023-05-18T05:32:32.611Z,7.00
2023-05-18T05:35:00.846Z,7.16
2023-05-18T05:37:29.530Z,7.27
2023-05-18T05:39:59.539Z,7.61
2023-05-18T05:42:27.661Z,7.74
2023-05-18T05:44:55.744Z,7.89
2023-05-18T05:47:23.828Z,8.13
2023-05-18T05:49:51.822Z,8.28
2023-05-18T05:52:19.909Z,8.37
2023-05-18T05:54:48.786Z,8.73
2023-05-18T05:57:18.240Z,8.34
2023-05-18T05:59:46.416Z,8.73
2023-05-18T06:02:14.438Z,8.81
2023-05-18T06:04:43.495Z,9.20
2023-05-18T06:07:11.463Z,9.13
2023-05-18T06:09:39.471Z,9.44
2023-05-18T06:12:08.223Z,9.51
2023-05-18T06:14:37.600Z,9.77
2023-05-18T06:17:06.086Z,9.78
2023-05-18T06:19:34.267Z,9.59
2023-05-18T06:22:02.402Z,9.98
2023-05-18T06:24:30.417Z,10.15
2023-05-18T06:26:58.432Z,9.97
2023-05-18T06:29:26.421Z,10.02
2023-05-18T06:31:55.967Z,9.98
2023-05-18T06:34:24.188Z,10.14
2023-05-18T06:36:52.223Z,10.21
2023-05-18T06:39:20.249Z,10.26
2023-05-18T06:41:48.208Z,10.02
2023-05-18T06:44:16.171Z,10.35
2023-05-18T06:46:44.242Z,10.45
2023-05-18T06:49:13.655Z,10.14
2023-05-18T06:51:44.067Z,10.31
2023-05-18T06:54:12.096Z,10.37
2023-05-18T06:56:40.137Z,10.42
2023-05-18T06:59:08.292Z,10.54
2023-05-18T07:01:36.959Z,10.67
2023-05-18T07:04:07.778Z,10.81
2023-05-18T07:06:38.411Z,10.79
2023-05-18T07:09:08.118Z,10.80
2023-05-18T07:11:36.664Z,11.01
2023-05-18T07:14:04.663Z,11.43
2023-05-18T07:16:32.664Z,11.44
2023-05-18T07:19:00.693Z,11.28
2023-05-18T07:21:28.744Z,11.50
2023-05-18T07:23:58.112Z,11.41
2023-05-18T07:26:26.223Z,11.60
2023-05-18T07:28:54.329Z,12.09
2023-05-18T07:31:26.627Z,12.18
2023-05-18T07:33:54.810Z,12.12
2023-05-18T07:36:22.944Z,12.23
2023-05-18T07:38:55.056Z,12.52
2023-05-18T07:41:24.544Z,12.41
2023-05-18T07:44:07.419Z,12.38
2023-05-18T07:46:35.493Z,12.66
2023-05-18T07:49:03.521Z,12.75
2023-05-18T07:51:31.748Z,12.99
2023-05-18T07:53:59.767Z,12.92
2023-05-18T07:56:29.543Z,12.95
2023-05-18T07:58:57.520Z,13.20
2023-05-18T08:01:27.713Z,13.41
2023-05-18T08:03:55.892Z,13.23
2023-05-18T08:06:24.084Z,13.23
2023-05-18T08:08:52.090Z,13.29
2023-05-18T08:11:20.178Z,13.04
2023-05-18T08:13:49.669Z,13.62
2023-05-18T08:16:18.345Z,13.64
2023-05-18T08:18:46.389Z,13.80
2023-05-18T08:21:14.427Z,13.93
2023-05-18T08:23:42.632Z,14.09
2023-05-18T08:26:13.978Z,13.91
2023-05-18T08:28:42.645Z,14.13
2023-05-18T08:31:12.524Z,14.02
2023-05-18T08:33:40.526Z,14.23
2023-05-18T08:36:10.035Z,14.14
2023-05-18T08:38:38.146Z,14.21
2023-05-18T08:41:14.039Z,14.36
2023-05-18T08:43:45.945Z,14.39
2023-05-18T08:46:22.098Z,14.75
2023-05-18T08:48:54.191Z,14.87
2023-05-18T08:51:23.492Z,14.39
2023-05-18T08:53:55.210Z,15.01
2023-05-18T08:56:25.285Z,15.27
2023-05-18T08:58:56.748Z,15.43
2023-05-18T09:01:29.595Z,15.53
2023-05-18T09:03:58.614Z,15.44
2023-05-18T09:06:26.686Z,15.34
2023-05-18T09:08:57.784Z,15.66
2023-05-18T09:11:28.063Z,15.73
2023-05-18T09:13:56.475Z,15.63
2023-05-18T09:16:33.943Z,15.62
2023-05-18T09:19:03.678Z,15.80
2023-05-18T09:21:32.760Z,15.77
2023-05-18T09:24:01.548Z,15.99
2023-05-18T09:26:32.012Z,15.67
2023-05-18T09:29:00.690Z,15.23
2023-05-18T09:31:31.713Z,16.07
2023-05-18T09:34:01.376Z,16.13
2023-05-18T09:36:34.670Z,16.14
2023-05-18T09:39:10.190Z,15.56
2023-05-18T09:41:40.279Z,15.42
2023-05-18T09:44:09.680Z,16.47
2023-05-18T09:46:38.688Z,16.95
2023-05-18T09:49:08.173Z,17.03
2023-05-18T09:51:38.500Z,16.99
2023-05-18T09:54:10.499Z,17.50
2023-05-18T09:56:39.849Z,16.61
2023-05-18T09:59:12.673Z,16.78
2023-05-18T10:01:56.966Z,16.39
2023-05-18T10:04:25.199Z,16.68
2023-05-18T10:07:06.490Z,16.81
2023-05-18T10:10:03.767Z,16.54
2023-05-18T10:12:37.917Z,16.44
2023-05-18T10:15:15.894Z,16.15
2023-05-18T10:17:49.326Z,16.67
2023-05-18T10:20:20.444Z,16.60
2023-05-18T10:22:51.189Z,16.92
2023-05-18T10:25:22.657Z,16.61
2023-05-18T10:27:53.052Z,16.69
2023-05-18T10:30:23.156Z,16.58
2023-05-18T10:32:52.859Z,16.22
2023-05-18T10:35:21.963Z,16.50
2023-05-18T10:37:53.303Z,16.68
2023-05-18T10:40:22.939Z,16.54
2023-05-18T10:42:53.607Z,17.09
2023-05-18T10:45:22.906Z,17.32
2023-05-18T10:47:55.383Z,17.09
2023-05-18T10:50:24.865Z,17.23
2023-05-18T10:52:55.085Z,18.12
2023-05-18T10:55:23.245Z,17.95
2023-05-18T10:57:55.394Z,17.62
2023-05-18T11:00:23.629Z,17.32
2023-05-18T11:02:53.118Z,17.46
2023-05-18T11:05:27.780Z,18.67
2023-05-18T11:08:03.570Z,18.41
2023-05-18T11:10:36.216Z,17.57
2023-05-18T11:13:04.757Z,17.80
2023-05-18T11:16:06.671Z,16.79
2023-05-18T11:18:44.611Z,17.24
2023-05-18T11:21:23.601Z,17.47
2023-05-18T11:24:29.828Z,16.83
2023-05-18T11:27:03.763Z,16.76
2023-05-18T11:29:33.656Z,17.00
2023-05-18T11:32:04.858Z,17.17
2023-05-18T11:34:45.933Z,16.79
2023-05-18T11:37:16.204Z,17.12
2023-05-18T11:40:00.178Z,17.40
2023-05-18T11:42:35.198Z,17.58
2023-05-18T11:45:10.612Z,17.67
2023-05-18T11:47:40.712Z,18.09
2023-05-18T11:50:11.960Z,18.37
2023-05-18T11:52:53.307Z,17.68
2023-05-18T11:55:22.618Z,17.74
2023-05-18T11:57:53.791Z,17.49
2023-05-18T12:00:22.571Z,17.55
2023-05-18T12:02:52.930Z,17.69
2023-05-18T12:05:21.383Z,17.49
2023-05-18T12:07:53.881Z,17.92
2023-05-18T12:10:22.990Z,17.60
2023-05-18T12:12:53.801Z,17.66
2023-05-18T12:15:25.348Z,17.86
2023-05-18T12:17:54.384Z,17.74
2023-05-18T12:20:25.228Z,17.60
2023-05-18T12:22:55.068Z,17.52
2023-05-18T12:25:24.472Z,17.48
2023-05-18T12:27:55.096Z,17.61
2023-05-18T12:30:24.431Z,17.54
2023-05-18T12:32:53.734Z,17.55
2023-05-18T12:35:25.224Z,17.69
2023-05-18T12:37:55.610Z,17.50
2023-05-18T12:40:24.054Z,17.49
2023-05-18T12:42:59.669Z,17.27
2023-05-18T12:45:28.978Z,17.31
2023-05-18T12:48:06.248Z,17.56
2023-05-18T12:50:35.037Z,17.72
2023-05-18T12:53:03.231Z,17.73
2023-05-18T12:55:32.358Z,17.84
2023-05-18T12:58:04.214Z,17.99
2023-05-18T13:00:35.637Z,17.87
2023-05-18T13:03:08.892Z,18.05
2023-05-18T13:05:38.333Z,18.10
2023-05-18T13:08:06.816Z,18.16
2023-05-18T13:10:35.722Z,18.00
2023-05-18T13:13:05.277Z,17.96
2023-05-18T13:15:38.250Z,17.77
2023-05-18T13:18:10.168Z,17.61
2023-05-18T13:20:44.704Z,17.57
2023-05-18T13:23:14.759Z,17.33
2023-05-18T13:25:43.535Z,17.48
2023-05-18T13:28:14.224Z,17.59
2023-05-18T13:30:43.714Z,17.65
2023-05-18T13:33:12.822Z,17.36
2023-05-18T13:35:42.757Z,17.28
2023-05-18T13:38:13.404Z,17.14
2023-05-18T13:40:42.184Z,17.13
2023-05-18T13:43:12.028Z,17.20
2023-05-18T13:45:43.206Z,17.27
2023-05-18T13:48:11.416Z,17.16
2023-05-18T13:50:40.450Z,17.11
2023-05-18T13:53:08.434Z,16.98
2023-05-18T13:55:37.102Z,17.05
2023-05-18T13:58:05.452Z,16.93
2023-05-18T14:00:34.067Z,17.04
2023-05-18T14:03:03.925Z,17.07
2023-05-18T14:05:32.086Z,16.97
2023-05-18T14:08:00.379Z,17.08
2023-05-18T14:10:28.593Z,16.92
2023-05-18T14:12:57.106Z,16.94
2023-05-18T14:15:25.444Z,17.02
2023-05-18T14:17:53.539Z,16.96
2023-05-18T14:20:23.054Z,17.04
2023-05-18T14:22:51.133Z,17.11
2023-05-18T14:25:19.213Z,17.01
2023-05-18T14:27:47.261Z,16.89
2023-05-18T14:30:15.870Z,16.95
2023-05-18T14:32:43.898Z,16.91
2023-05-18T14:35:12.666Z,16.87
2023-05-18T14:37:42.152Z,16.94
2023-05-18T14:40:10.926Z,16.92
2023-05-18T14:42:38.973Z,16.99
2023-05-18T14:45:07.974Z,17.02
2023-05-18T14:47:36.085Z,17.11
2023-05-18T14:50:05.562Z,17.04
2023-05-18T14:52:33.669Z,17.00
2023-05-18T14:55:03.168Z,16.90
2023-05-18T14:57:31.173Z,16.94
2023-05-18T15:00:00.934Z,16.85
2023-05-18T15:02:29.035Z,16.84
2023-05-18T15:04:57.156Z,16.55
2023-05-18T15:07:26.543Z,16.46
2023-05-18T15:09:55.626Z,16.47
2023-05-18T15:12:25.905Z,16.32
2023-05-18T15:14:54.229Z,16.38
2023-05-18T15:17:22.455Z,16.34
2023-05-18T15:19:50.548Z,16.43
2023-05-18T15:22:18.514Z,16.44
2023-05-18T15:24:46.532Z,16.60
2023-05-18T15:27:14.552Z,16.65
2023-05-18T15:29:43.951Z,16.71
2023-05-18T15:32:12.093Z,16.74
2023-05-18T15:34:40.514Z,16.87
2023-05-18T15:37:08.497Z,16.82
2023-05-18T15:39:38.444Z,16.72
2023-05-18T15:42:06.973Z,16.55
2023-05-18T15:44:35.008Z,16.58
2023-05-18T15:47:05.999Z,16.30
2023-05-18T15:49:34.005Z,16.14
2023-05-18T15:52:02.079Z,16.23
2023-05-18T15:54:30.084Z,16.27
2023-05-18T15:56:58.083Z,16.23
2023-05-18T15:59:26.210Z,16.09
2023-05-18T16:01:54.323Z,16.03
2023-05-18T16:04:23.745Z,15.97
2023-05-18T16:06:51.775Z,15.94
2023-05-18T16:09:19.829Z,15.80
2023-05-18T16:11:47.888Z,15.90
2023-05-18T16:14:15.976Z,15.75
2023-05-18T16:16:44.019Z,15.78
2023-05-18T16:19:12.117Z,15.77
2023-05-18T16:21:41.620Z,15.76
2023-05-18T16:24:09.982Z,15.80
2023-05-18T16:26:40.005Z,15.80
2023-05-18T16:29:08.218Z,15.68
2023-05-18T16:31:37.231Z,15.81
2023-05-18T16:34:08.759Z,15.75
2023-05-18T16:36:38.509Z,15.74
2023-05-18T16:39:08.018Z,15.75
2023-05-18T16:41:36.079Z,15.75
2023-05-18T16:44:04.183Z,15.81
2023-05-18T16:46:36.065Z,15.83
2023-05-18T16:49:05.441Z,15.83
2023-05-18T16:51:33.478Z,15.89
2023-05-18T16:54:01.536Z,15.90
2023-05-18T16:56:31.002Z,15.84
2023-05-18T16:58:59.034Z,15.82
2023-05-18T17:01:28.889Z,15.75
2023-05-18T17:03:57.340Z,15.69
2023-05-18T17:06:27.764Z,15.59
2023-05-18T17:08:58.690Z,15.62
2023-05-18T17:11:27.853Z,15.68
2023-05-18T17:14:08.034Z,15.66
2023-05-18T17:16:40.474Z,15.45
2023-05-18T17:19:08.755Z,15.52
2023-05-18T17:21:36.767Z,15.32
2023-05-18T17:24:05.239Z,15.35
2023-05-18T17:26:33.480Z,15.22
2023-05-18T17:29:02.906Z,15.36
2023-05-18T17:31:30.913Z,15.26
2023-05-18T17:33:59.010Z,15.24
2023-05-18T17:36:27.857Z,15.22
2023-05-18T17:38:58.197Z,15.16
2023-05-18T17:41:27.711Z,15.11
2023-05-18T17:43:55.840Z,15.02
2023-05-18T17:46:25.318Z,14.78
2023-05-18T17:48:53.381Z,14.82
2023-05-18T17:51:21.997Z,14.82
2023-05-18T17:53:49.958Z,14.77
2023-05-18T17:56:18.201Z,14.67
2023-05-18T17:58:46.299Z,14.66
2023-05-18T18:01:14.430Z,14.70
2023-05-18T18:03:44.757Z,14.62
2023-05-18T18:06:13.043Z,14.58
2023-05-18T18:08:42.795Z,14.52
2023-05-18T18:11:11.186Z,14.55
2023-05-18T18:13:39.985Z,14.54
2023-05-18T18:16:08.121Z,14.36
2023-05-18T18:18:38.556Z,14.43
2023-05-18T18:21:10.670Z,14.30
2023-05-18T18:23:41.935Z,14.36
2023-05-18T18:26:12.835Z,14.32
2023-05-18T18:28:41.702Z,14.20
2023-05-18T18:31:09.893Z,14.25
2023-05-18T18:33:37.905Z,14.12
2023-05-18T18:36:08.114Z,14.12
2023-05-18T18:38:36.128Z,14.14
2023-05-18T18:41:05.242Z,14.18
2023-05-18T18:43:35.237Z,14.12
2023-05-18T18:46:03.392Z,14.10
2023-05-18T18:48:31.494Z,14.25
2023-05-18T18:50:59.458Z,14.22
2023-05-18T18:53:28.930Z,14.12
2023-05-18T18:55:57.334Z,13.95
2023-05-18T18:58:25.329Z,14.01
2023-05-18T19:00:55.627Z,13.97
2023-05-18T19:03:26.142Z,13.87
2023-05-18T19:05:54.200Z,13.95
2023-05-18T19:08:22.273Z,13.87
2023-05-18T19:10:52.639Z,13.74
2023-05-18T19:13:21.782Z,13.76
2023-05-18T19:15:51.998Z,13.67
2023-05-18T19:18:20.990Z,13.68
2023-05-18T19:20:53.770Z,13.62
2023-05-18T19:23:24.384Z,13.56
2023-05-18T19:25:54.911Z,13.51
2023-05-18T19:28:22.886Z,13.58
2023-05-18T19:30:50.900Z,13.49
2023-05-18T19:33:18.946Z,13.45
2023-05-18T19:35:46.930Z,13.48
2023-05-18T19:38:16.895Z,13.38
2023-05-18T19:40:50.382Z,13.40
2023-05-18T19:43:20.056Z,13.33
2023-05-18T19:45:49.921Z,13.30
2023-05-18T19:48:18.604Z,13.30
2023-05-18T19:50:47.160Z,13.22
2023-05-18T19:53:16.987Z,13.04
2023-05-18T19:55:45.725Z,13.23
2023-05-18T19:58:14.934Z,13.15
2023-05-18T20:00:44.478Z,13.26
2023-05-18T20:03:12.510Z,13.28
2023-05-18T20:05:40.968Z,13.06
2023-05-18T20:08:10.158Z,13.19
2023-05-18T20:10:38.152Z,13.12
2023-05-18T20:13:06.263Z,12.98
2023-05-18T20:15:37.184Z,13.07
2023-05-18T20:18:07.265Z,13.25
2023-05-18T20:20:36.276Z,13.23
2023-05-18T20:23:06.790Z,13.07
2023-05-18T20:25:36.510Z,13.27
2023-05-18T20:28:07.686Z,13.27
2023-05-18T20:30:35.824Z,13.18
2023-05-18T20:33:07.936Z,13.04
2023-05-18T20:35:40.160Z,13.10
2023-05-18T20:38:09.729Z,13.09
2023-05-18T20:40:38.144Z,13.04
2023-05-18T20:43:10.080Z,12.93
2023-05-18T20:45:38.194Z,12.98
2023-05-18T20:48:07.768Z,12.94
2023-05-18T20:50:37.716Z,13.02
2023-05-18T20:53:05.812Z,13.13
2023-05-18T20:55:33.810Z,13.09
2023-05-18T20:58:02.676Z,12.99
2023-05-18T21:00:30.829Z,12.97
2023-05-18T21:02:59.187Z,12.94
2023-05-18T21:05:27.395Z,12.81
2023-05-18T21:07:57.068Z,12.93
2023-05-18T21:10:25.329Z,12.97
2023-05-18T21:12:53.400Z,12.99
2023-05-18T21:15:21.481Z,12.97
2023-05-18T21:17:49.508Z,12.98
2023-05-18T21:20:20.872Z,12.91
2023-05-18T21:22:48.972Z,12.86
2023-05-18T21:25:20.121Z,12.79
2023-05-18T21:27:48.668Z,12.69
2023-05-18T21:30:18.390Z,12.67
2023-05-18T21:32:48.328Z,12.65
2023-05-18T21:35:17.125Z,12.54
2023-05-18T21:37:45.397Z,12.61
2023-05-18T21:40:13.732Z,12.62
2023-05-18T21:42:45.943Z,12.65
2023-05-18T21:45:14.613Z,12.51
2023-05-18T21:47:48.114Z,12.62
2023-05-18T21:50:16.216Z,12.53
2023-05-18T21:52:45.613Z,12.54
2023-05-18T21:55:14.127Z,12.46
2023-05-18T21:57:43.535Z,12.31
2023-05-18T22:00:14.130Z,12.31
2023-05-18T22:02:43.058Z,12.33
2023-05-18T22:05:11.459Z,12.33
2023-05-18T22:07:39.521Z,12.11
2023-05-18T22:10:08.262Z,12.18
2023-05-18T22:12:38.048Z,12.09
2023-05-18T22:15:10.497Z,12.03
2023-05-18T22:17:39.121Z,12.06
2023-05-18T22:20:11.397Z,12.02
2023-05-18T22:22:41.619Z,12.05
2023-05-18T22:25:10.848Z,12.06
2023-05-18T22:27:39.902Z,11.95
2023-05-18T22:30:11.698Z,11.95
2023-05-18T22:32:41.092Z,11.84
2023-05-18T22:35:11.558Z,11.78
2023-05-18T22:37:40.809Z,11.55
2023-05-18T22:40:10.191Z,11.57
2023-05-18T22:42:39.254Z,11.66
2023-05-18T22:45:11.746Z,11.75
2023-05-18T22:47:40.198Z,11.75
2023-05-18T22:50:10.125Z,11.65
2023-05-18T22:52:38.270Z,11.65
2023-05-18T22:55:12.291Z,11.53
2023-05-18T22:57:41.810Z,11.41
2023-05-18T23:00:14.293Z,11.50
2023-05-18T23:02:43.547Z,11.43
2023-05-18T23:05:13.498Z,11.49
2023-05-18T23:07:43.727Z,11.48
2023-05-18T23:10:13.217Z,11.41
2023-05-18T23:12:42.379Z,11.44
2023-05-18T23:15:13.157Z,11.43
2023-05-18T23:17:42.632Z,11.39
2023-05-18T23:20:12.214Z,11.43
2023-05-18T23:22:40.451Z,11.31
2023-05-18T23:25:10.195Z,11.11
2023-05-18T23:27:38.699Z,10.94
2023-05-18T23:30:08.292Z,10.98
2023-05-18T23:32:38.842Z,11.17
2023-05-18T23:35:09.041Z,11.11
2023-05-18T23:37:42.257Z,11.19
2023-05-18T23:40:12.466Z,11.15
2023-05-18T23:42:41.102Z,11.07
2023-05-18T23:45:10.726Z,11.10
2023-05-18T23:47:41.868Z,10.69
2023-05-18T23:50:11.111Z,11.13
2023-05-18T23:52:40.555Z,11.01
2023-05-18T23:55:11.604Z,11.15
2023-05-18T23:57:40.053Z,11.16
